createdAt,value
2023-04-09T00:01:28.875Z,19.92
2023-04-09T00:03:55.333Z,19.92
2023-04-09T00:06:21.731Z,19.90
2023-04-09T00:08:48.142Z,19.89
2023-04-09T00:11:14.581Z,19.87
2023-04-09T00:13:41.159Z,19.88
2023-04-09T00:16:08.122Z,19.89
2023-04-09T00:18:34.677Z,19.89
2023-04-09T00:21:01.173Z,19.90
2023-04-09T00:23:27.614Z,19.89
2023-04-09T00:25:53.968Z,19.90
2023-04-09T00:28:20.599Z,19.92
2023-04-09T00:30:46.924Z,19.92
2023-04-09T00:33:13.355Z,19.92
2023-04-09T00:35:39.730Z,19.90
2023-04-09T00:38:06.142Z,19.90
2023-04-09T00:40:32.621Z,19.88
2023-04-09T00:42:59.004Z,19.90
2023-04-09T00:45:25.547Z,19.90
2023-04-09T00:47:52.280Z,19.90
2023-04-09T00:50:18.718Z,19.92
2023-04-09T00:52:45.410Z,19.90
2023-04-09T00:55:12.549Z,19.89
2023-04-09T00:57:39.026Z,19.87
2023-04-09T01:00:07.261Z,19.87
2023-04-09T01:02:33.934Z,19.87
2023-04-09T01:05:00.700Z,19.88
2023-04-09T01:07:39.461Z,19.89
2023-04-09T01:10:26.106Z,19.91
2023-04-09T01:13:00.467Z,19.90
2023-04-09T01:15:29.815Z,19.88
2023-04-09T01:18:07.634Z,19.89
2023-04-09T01:20:42.278Z,19.87
2023-04-09T01:23:16.893Z,19.87
2023-04-09T01:25:43.271Z,19.88
2023-04-09T01:28:16.838Z,19.86
2023-04-09T01:30:46.753Z,19.84
2023-04-09T01:33:14.512Z,19.84
2023-04-09T01:35:45.887Z,19.85
2023-04-09T01:38:13.741Z,19.86
2023-04-09T01:40:40.999Z,19.86
2023-04-09T01:43:07.891Z,19.85
2023-04-09T01:45:34.756Z,19.84
2023-04-09T01:48:01.600Z,19.85
2023-04-09T01:50:28.217Z,19.85
2023-04-09T01:52:54.646Z,19.85
2023-04-09T01:55:21.108Z,19.88
2023-04-09T01:57:47.454Z,19.86
2023-04-09T02:00:14.548Z,19.84
2023-04-09T02:02:46.250Z,19.87
2023-04-09T02:05:15.442Z,19.85
2023-04-09T02:07:47.322Z,19.84
2023-04-09T02:10:13.960Z,19.85
2023-04-09T02:12:42.826Z,19.85
2023-04-09T02:15:09.484Z,19.84
2023-04-09T02:17:35.872Z,19.84
2023-04-09T02:20:02.256Z,19.83
2023-04-09T02:22:28.600Z,19.85
2023-04-09T02:24:55.177Z,19.86
2023-04-09T02:27:21.695Z,19.86
2023-04-09T02:29:48.131Z,19.87
2023-04-09T02:32:14.513Z,19.87
2023-04-09T02:34:40.866Z,19.89
2023-04-09T02:37:07.421Z,19.90
2023-04-09T02:39:33.776Z,19.91
2023-04-09T02:42:01.001Z,19.92
2023-04-09T02:44:27.344Z,19.92
2023-04-09T02:46:53.736Z,19.91
2023-04-09T02:49:20.170Z,19.92
2023-04-09T02:51:46.593Z,19.91
2023-04-09T02:54:12.995Z,19.90
2023-04-09T02:56:39.370Z,19.88
2023-04-09T02:59:05.701Z,19.86
2023-04-09T03:01:32.172Z,19.84
2023-04-09T03:03:58.736Z,19.81
2023-04-09T03:06:25.196Z,19.80
2023-04-09T03:08:51.759Z,19.79
2023-04-09T03:11:18.250Z,19.79
2023-04-09T03:13:44.572Z,19.80
2023-04-09T03:16:11.007Z,19.83
2023-04-09T03:18:37.386Z,19.85
2023-04-09T03:21:07.584Z,19.85
2023-04-09T03:23:35.078Z,19.87
2023-04-09T03:26:02.090Z,19.87
2023-04-09T03:28:28.570Z,19.87
2023-04-09T03:30:54.939Z,19.85
2023-04-09T03:33:21.381Z,19.86
2023-04-09T03:35:47.829Z,19.84
2023-04-09T03:38:14.551Z,19.81
2023-04-09T03:40:42.619Z,19.82
2023-04-09T03:43:08.991Z,19.82
2023-04-09T03:45:35.425Z,19.81
2023-04-09T03:48:01.880Z,19.83
2023-04-09T03:50:28.308Z,19.84
2023-04-09T03:52:54.778Z,19.84
2023-04-09T03:55:21.179Z,19.84
2023-04-09T03:57:47.499Z,19.84
2023-04-09T04:00:13.955Z,19.86
2023-04-09T04:02:40.455Z,19.85
2023-04-09T04:05:07.294Z,19.83
2023-04-09T04:07:33.701Z,19.84
2023-04-09T04:10:00.214Z,19.83
2023-04-09T04:12:26.615Z,19.84
2023-04-09T04:14:53.007Z,19.82
2023-04-09T04:17:19.434Z,19.83
2023-04-09T04:19:45.962Z,19.83
2023-04-09T04:22:12.295Z,19.84
2023-04-09T04:24:38.680Z,19.82
2023-04-09T04:27:05.148Z,19.82
2023-04-09T04:29:31.609Z,19.82
2023-04-09T04:31:58.112Z,19.81
2023-04-09T04:34:24.638Z,19.80
2023-04-09T04:36:51.007Z,19.81
2023-04-09T04:39:17.372Z,19.79
2023-04-09T04:41:43.780Z,19.79
2023-04-09T04:44:10.260Z,19.78
2023-04-09T04:46:36.675Z,19.78
2023-04-09T04:49:03.117Z,19.78
2023-04-09T04:51:31.430Z,19.78
2023-04-09T04:53:57.832Z,19.79
2023-04-09T04:56:24.200Z,19.77
2023-04-09T04:58:50.847Z,19.78
2023-04-09T05:01:17.478Z,19.79
2023-04-09T05:03:44.011Z,19.82
2023-04-09T05:06:10.779Z,19.83
2023-04-09T05:08:37.438Z,19.85
2023-04-09T05:11:03.802Z,19.87
2023-04-09T05:13:30.236Z,19.87
2023-04-09T05:15:56.594Z,19.87
2023-04-09T05:18:22.979Z,19.85
2023-04-09T05:20:49.452Z,19.84
2023-04-09T05:23:15.851Z,19.84
2023-04-09T05:25:42.304Z,19.82
2023-04-09T05:28:11.233Z,19.81
2023-04-09T05:30:37.653Z,19.80
2023-04-09T05:33:04.192Z,19.81
2023-04-09T05:35:30.926Z,19.80
2023-04-09T05:37:57.421Z,19.81
2023-04-09T05:40:23.918Z,19.81
2023-04-09T05:42:50.480Z,19.79
2023-04-09T05:45:16.977Z,19.78
2023-04-09T05:47:43.350Z,19.78
2023-04-09T05:50:09.896Z,19.77
2023-04-09T05:52:36.222Z,19.78
2023-04-09T05:55:02.561Z,19.78
2023-04-09T05:57:30.541Z,19.79
2023-04-09T05:59:57.194Z,19.78
2023-04-09T06:02:24.969Z,19.79
2023-04-09T06:04:51.598Z,19.79
2023-04-09T06:07:18.083Z,19.81
2023-04-09T06:09:45.027Z,19.81
2023-04-09T06:12:11.398Z,19.81
2023-04-09T06:14:37.739Z,19.81
2023-04-09T06:17:04.133Z,19.81
2023-04-09T06:19:30.921Z,19.79
2023-04-09T06:21:57.357Z,19.79
2023-04-09T06:24:24.008Z,19.79
2023-04-09T06:26:50.412Z,19.81
2023-04-09T06:29:19.801Z,19.81
2023-04-09T06:31:47.080Z,19.83
2023-04-09T06:34:13.482Z,19.84
2023-04-09T06:36:40.561Z,19.84
2023-04-09T06:39:07.437Z,19.83
2023-04-09T06:41:33.819Z,19.80
2023-04-09T06:44:00.650Z,19.81
2023-04-09T06:46:27.663Z,19.81
2023-04-09T06:48:54.233Z,19.80
2023-04-09T06:51:20.945Z,19.80
2023-04-09T06:53:48.394Z,19.79
2023-04-09T06:56:14.923Z,19.80
2023-04-09T06:58:41.377Z,19.80
2023-04-09T07:01:07.841Z,19.80
2023-04-09T07:03:34.382Z,19.78
2023-04-09T07:06:00.995Z,19.78
2023-04-09T07:08:28.604Z,19.78
2023-04-09T07:10:55.042Z,19.77
2023-04-09T07:13:21.423Z,19.77
2023-04-09T07:15:47.856Z,19.76
2023-04-09T07:18:14.272Z,19.75
2023-04-09T07:20:40.791Z,19.76
2023-04-09T07:23:07.247Z,19.76
2023-04-09T07:25:34.048Z,19.75
2023-04-09T07:28:00.424Z,19.75
2023-04-09T07:30:27.461Z,19.74
2023-04-09T07:32:54.202Z,19.75
2023-04-09T07:35:20.954Z,19.75
2023-04-09T07:37:47.366Z,19.73
2023-04-09T07:40:14.226Z,19.75
2023-04-09T07:42:40.717Z,19.75
2023-04-09T07:45:07.419Z,19.75
2023-04-09T07:47:33.905Z,19.76
2023-04-09T07:50:00.652Z,19.78
2023-04-09T07:52:27.133Z,19.77
2023-04-09T07:54:53.628Z,19.78
2023-04-09T07:57:20.084Z,19.78
2023-04-09T07:59:46.751Z,19.77
2023-04-09T08:02:15.304Z,19.77
2023-04-09T08:04:42.208Z,19.77
2023-04-09T08:07:09.016Z,19.79
2023-04-09T08:09:35.452Z,19.77
2023-04-09T08:12:01.934Z,19.77
2023-04-09T08:14:28.316Z,19.77
2023-04-09T08:16:54.897Z,19.78
2023-04-09T08:19:21.393Z,19.78
2023-04-09T08:21:49.534Z,19.78
2023-04-09T08:24:16.199Z,19.78
2023-04-09T08:26:43.083Z,19.79
2023-04-09T08:29:10.990Z,19.84
2023-04-09T08:31:37.624Z,19.86
2023-04-09T08:34:06.781Z,19.89
2023-04-09T08:36:35.473Z,19.91
2023-04-09T08:39:03.405Z,19.95
2023-04-09T08:41:30.581Z,19.97
2023-04-09T08:43:58.801Z,19.98
2023-04-09T08:46:26.562Z,19.99
2023-04-09T08:48:53.618Z,20.02
2023-04-09T08:51:21.799Z,20.02
2023-04-09T08:53:50.511Z,20.02
2023-04-09T08:56:17.003Z,20.09
2023-04-09T08:58:44.743Z,20.09
2023-04-09T09:01:24.957Z,20.06
2023-04-09T09:03:57.652Z,19.99
2023-04-09T09:06:25.022Z,19.94
2023-04-09T09:09:00.759Z,19.88
2023-04-09T09:11:27.800Z,19.81
2023-04-09T09:13:58.022Z,19.78
2023-04-09T09:16:24.600Z,19.74
2023-04-09T09:18:52.556Z,19.74
2023-04-09T09:21:19.758Z,19.75
2023-04-09T09:23:48.302Z,19.74
2023-04-09T09:26:16.506Z,19.76
2023-04-09T09:28:43.370Z,19.76
2023-04-09T09:31:12.443Z,19.76
2023-04-09T09:33:39.332Z,19.76
2023-04-09T09:36:05.905Z,19.76
2023-04-09T09:38:32.329Z,19.77
2023-04-09T09:41:01.869Z,19.78
2023-04-09T09:43:40.022Z,19.79
2023-04-09T09:46:07.094Z,19.76
2023-04-09T09:48:33.481Z,19.78
2023-04-09T09:51:01.403Z,19.78
2023-04-09T09:53:28.704Z,19.77
2023-04-09T09:55:57.238Z,19.77
2023-04-09T09:58:27.092Z,19.78
2023-04-09T10:00:53.512Z,19.78
2023-04-09T10:03:21.267Z,19.79
2023-04-09T10:05:48.875Z,19.79
2023-04-09T10:08:16.050Z,19.79
2023-04-09T10:10:43.142Z,19.78
2023-04-09T10:13:13.933Z,19.78
2023-04-09T10:15:43.176Z,19.80
2023-04-09T10:18:09.820Z,19.80
2023-04-09T10:20:41.780Z,19.81
2023-04-09T10:23:11.575Z,19.81
2023-04-09T10:25:37.963Z,19.82
2023-04-09T10:28:14.571Z,19.84
2023-04-09T10:30:40.999Z,19.83
2023-04-09T10:33:17.117Z,19.84
2023-04-09T10:35:46.628Z,19.83
2023-04-09T10:38:14.435Z,19.83
2023-04-09T10:40:53.402Z,19.83
2023-04-09T10:43:23.537Z,19.85
2023-04-09T10:45:54.435Z,19.87
2023-04-09T10:48:22.007Z,19.86
2023-04-09T10:50:50.322Z,19.87
2023-04-09T10:53:24.022Z,19.87
2023-04-09T10:55:51.173Z,19.86
2023-04-09T10:58:17.687Z,19.88
2023-04-09T11:00:45.161Z,19.89
2023-04-09T11:03:32.721Z,19.90
2023-04-09T11:06:03.561Z,19.90
2023-04-09T11:08:31.442Z,19.91
2023-04-09T11:10:59.439Z,19.92
2023-04-09T11:13:25.877Z,19.93
2023-04-09T11:15:52.387Z,19.94
2023-04-09T11:18:25.899Z,19.94
2023-04-09T11:21:00.351Z,19.95
2023-04-09T11:23:27.128Z,19.95
2023-04-09T11:25:54.144Z,19.96
2023-04-09T11:28:20.689Z,19.96
2023-04-09T11:30:47.145Z,19.96
2023-04-09T11:33:14.041Z,19.97
2023-04-09T11:35:40.735Z,20.00
2023-04-09T11:38:07.910Z,20.01
2023-04-09T11:40:34.404Z,20.03
2023-04-09T11:43:01.395Z,20.02
2023-04-09T11:45:28.856Z,20.05
2023-04-09T11:47:55.497Z,20.05
2023-04-09T11:50:22.279Z,20.05
2023-04-09T11:52:49.186Z,20.07
2023-04-09T11:55:28.876Z,20.06
2023-04-09T11:58:00.925Z,20.07
2023-04-09T12:00:27.986Z,20.06
2023-04-09T12:03:05.191Z,20.07
2023-04-09T12:05:33.328Z,20.06
2023-04-09T12:08:01.215Z,20.07
2023-04-09T12:10:37.499Z,20.08
2023-04-09T12:13:03.968Z,20.10
2023-04-09T12:15:34.387Z,20.11
2023-04-09T12:18:01.114Z,20.12
2023-04-09T12:20:31.779Z,20.12
2023-04-09T12:23:00.194Z,20.15
2023-04-09T12:25:27.248Z,20.15
2023-04-09T12:27:54.290Z,20.14
2023-04-09T12:30:21.083Z,20.15
2023-04-09T12:32:47.639Z,20.17
2023-04-09T12:35:14.345Z,20.17
2023-04-09T12:37:41.132Z,20.17
2023-04-09T12:40:07.734Z,20.18
2023-04-09T12:42:34.063Z,20.19
2023-04-09T12:45:01.179Z,20.19
2023-04-09T12:47:28.041Z,20.20
2023-04-09T12:49:54.661Z,20.20
2023-04-09T12:52:22.549Z,20.22
2023-04-09T12:54:49.102Z,20.24
2023-04-09T12:57:15.562Z,20.26
2023-04-09T12:59:41.926Z,20.27
2023-04-09T13:02:08.523Z,20.27
2023-04-09T13:04:35.157Z,20.28
2023-04-09T13:07:01.792Z,20.29
2023-04-09T13:09:28.138Z,20.32
2023-04-09T13:11:54.497Z,20.31
2023-04-09T13:14:21.015Z,20.32
2023-04-09T13:16:48.024Z,20.32
2023-04-09T13:19:14.435Z,20.33
2023-04-09T13:21:40.748Z,20.33
2023-04-09T13:24:07.130Z,20.34
2023-04-09T13:26:33.518Z,20.33
2023-04-09T13:29:00.209Z,20.35
2023-04-09T13:31:28.388Z,20.34
2023-04-09T13:33:54.969Z,20.32
2023-04-09T13:36:21.395Z,20.33
2023-04-09T13:38:48.942Z,20.32
2023-04-09T13:41:15.528Z,20.31
2023-04-09T13:43:41.949Z,20.32
2023-04-09T13:46:08.319Z,20.31
2023-04-09T13:48:34.672Z,20.31
2023-04-09T13:51:01.048Z,20.32
2023-04-09T13:53:27.539Z,20.32
2023-04-09T13:55:53.921Z,20.34
2023-04-09T13:58:22.545Z,20.34
2023-04-09T14:00:49.075Z,20.35
2023-04-09T14:03:16.423Z,20.36
2023-04-09T14:05:43.011Z,20.37
2023-04-09T14:08:09.455Z,20.36
2023-04-09T14:10:36.074Z,20.37
2023-04-09T14:13:06.707Z,20.37
2023-04-09T14:15:34.907Z,20.37
2023-04-09T14:18:01.370Z,20.37
2023-04-09T14:20:27.995Z,20.38
2023-04-09T14:22:54.515Z,20.39
2023-04-09T14:25:20.946Z,20.39
2023-04-09T14:27:47.281Z,20.39
2023-04-09T14:30:14.038Z,20.39
2023-04-09T14:32:40.768Z,20.39
2023-04-09T14:35:07.285Z,20.39
2023-04-09T14:37:33.651Z,20.38
2023-04-09T14:40:00.154Z,20.38
2023-04-09T14:42:26.469Z,20.39
2023-04-09T14:44:52.799Z,20.37
2023-04-09T14:47:19.295Z,20.38
2023-04-09T14:49:45.860Z,20.38
2023-04-09T14:52:12.262Z,20.40
2023-04-09T14:54:38.609Z,20.39
2023-04-09T14:57:04.951Z,20.39
2023-04-09T14:59:31.404Z,20.39
2023-04-09T15:01:57.918Z,20.39
2023-04-09T15:04:24.525Z,20.40
2023-04-09T15:06:51.392Z,20.40
2023-04-09T15:09:17.840Z,20.39
2023-04-09T15:11:44.232Z,20.39
2023-04-09T15:14:10.696Z,20.38
2023-04-09T15:16:37.640Z,20.38
2023-04-09T15:19:04.142Z,20.39
2023-04-09T15:21:31.598Z,20.39
2023-04-09T15:23:59.064Z,20.39
2023-04-09T15:26:27.073Z,20.40
2023-04-09T15:29:01.239Z,20.41
2023-04-09T15:31:27.993Z,20.42
2023-04-09T15:33:54.569Z,20.42
2023-04-09T15:36:21.010Z,20.41
2023-04-09T15:38:47.427Z,20.41
2023-04-09T15:41:13.911Z,20.40
2023-04-09T15:43:40.311Z,20.39
2023-04-09T15:46:07.366Z,20.40
2023-04-09T15:48:33.794Z,20.40
2023-04-09T15:51:00.216Z,20.42
2023-04-09T15:53:29.080Z,20.41
2023-04-09T15:55:55.887Z,20.40
2023-04-09T15:58:22.351Z,20.40
2023-04-09T16:00:51.354Z,20.40
2023-04-09T16:03:19.042Z,20.39
2023-04-09T16:05:46.785Z,20.39
2023-04-09T16:08:13.198Z,20.40
2023-04-09T16:10:39.644Z,20.40
2023-04-09T16:13:06.438Z,20.41
2023-04-09T16:15:32.945Z,20.41
2023-04-09T16:17:59.430Z,20.40
2023-04-09T16:20:26.136Z,20.39
2023-04-09T16:22:52.540Z,20.40
2023-04-09T16:25:18.966Z,20.40
2023-04-09T16:27:45.338Z,20.40
2023-04-09T16:30:11.908Z,20.38
2023-04-09T16:32:38.410Z,20.40
2023-04-09T16:35:05.062Z,20.39
2023-04-09T16:37:31.475Z,20.37
2023-04-09T16:39:58.157Z,20.38
2023-04-09T16:42:26.771Z,20.37
2023-04-09T16:44:54.285Z,20.37
2023-04-09T16:47:20.887Z,20.35
2023-04-09T16:49:47.434Z,20.33
2023-04-09T16:52:13.803Z,20.33
2023-04-09T16:54:40.287Z,20.35
2023-04-09T16:57:06.609Z,20.34
2023-04-09T16:59:32.945Z,20.33
2023-04-09T17:01:59.450Z,20.31
2023-04-09T17:04:27.196Z,20.32
2023-04-09T17:06:53.803Z,20.30
2023-04-09T17:09:20.301Z,20.30
2023-04-09T17:11:46.670Z,20.29
2023-04-09T17:14:13.131Z,20.29
2023-04-09T17:16:39.583Z,20.28
2023-04-09T17:19:06.435Z,20.29
2023-04-09T17:21:32.883Z,20.29
2023-04-09T17:23:59.711Z,20.29
2023-04-09T17:26:26.211Z,20.29
2023-04-09T17:28:52.808Z,20.28
2023-04-09T17:31:19.476Z,20.29
2023-04-09T17:33:49.100Z,20.27
2023-04-09T17:36:19.670Z,20.27
2023-04-09T17:38:47.283Z,20.27
2023-04-09T17:41:14.115Z,20.27
2023-04-09T17:43:40.684Z,20.26
2023-04-09T17:46:09.765Z,20.26
2023-04-09T17:48:37.003Z,20.25
2023-04-09T17:51:03.706Z,20.23
2023-04-09T17:53:30.139Z,20.23
2023-04-09T17:55:56.568Z,20.23
2023-04-09T17:58:24.382Z,20.20
2023-04-09T18:00:52.883Z,20.22
2023-04-09T18:03:19.690Z,20.21
2023-04-09T18:05:46.543Z,20.21
2023-04-09T18:08:13.435Z,20.20
2023-04-09T18:10:39.919Z,20.19
2023-04-09T18:13:06.393Z,20.20
2023-04-09T18:15:32.932Z,20.18
2023-04-09T18:17:59.899Z,20.17
2023-04-09T18:20:26.573Z,20.15
2023-04-09T18:22:53.001Z,20.15
2023-04-09T18:25:19.729Z,20.16
2023-04-09T18:27:46.119Z,20.15
2023-04-09T18:30:12.595Z,20.14
2023-04-09T18:32:39.670Z,20.13
2023-04-09T18:35:06.344Z,20.12
2023-04-09T18:37:34.121Z,20.11
2023-04-09T18:40:02.376Z,20.11
2023-04-09T18:42:29.354Z,20.10
2023-04-09T18:44:56.356Z,20.10
2023-04-09T18:47:22.810Z,20.09
2023-04-09T18:49:49.525Z,20.09
2023-04-09T18:52:16.149Z,20.08
2023-04-09T18:54:42.839Z,20.07
2023-04-09T18:57:09.265Z,20.05
2023-04-09T18:59:35.793Z,20.05
2023-04-09T19:02:06.076Z,20.03
2023-04-09T19:04:36.462Z,20.02
2023-04-09T19:07:02.955Z,20.02
2023-04-09T19:09:29.351Z,20.01
2023-04-09T19:11:57.098Z,19.99
2023-04-09T19:14:24.274Z,19.97
2023-04-09T19:16:50.802Z,19.97
2023-04-09T19:19:17.476Z,19.98
2023-04-09T19:21:43.831Z,19.98
2023-04-09T19:24:10.324Z,19.96
2023-04-09T19:26:36.675Z,19.94
2023-04-09T19:29:05.646Z,19.95
2023-04-09T19:31:32.195Z,19.93
2023-04-09T19:33:58.711Z,19.92
2023-04-09T19:36:25.699Z,19.92
2023-04-09T19:38:52.400Z,19.91
2023-04-09T19:41:18.870Z,19.90
2023-04-09T19:43:48.236Z,19.89
2023-04-09T19:46:14.627Z,19.87
2023-04-09T19:48:41.302Z,19.87
2023-04-09T19:51:07.654Z,19.84
2023-04-09T19:53:36.276Z,19.84
2023-04-09T19:56:03.157Z,19.83
2023-04-09T19:58:29.634Z,19.83
2023-04-09T20:00:56.113Z,19.80
2023-04-09T20:03:22.961Z,19.78
2023-04-09T20:05:49.592Z,19.78
2023-04-09T20:08:16.660Z,19.75
2023-04-09T20:10:46.308Z,19.76
2023-04-09T20:13:12.915Z,19.75
2023-04-09T20:15:39.279Z,19.74
2023-04-09T20:18:06.469Z,19.74
2023-04-09T20:20:33.013Z,19.73
2023-04-09T20:22:59.602Z,19.73
2023-04-09T20:25:26.160Z,19.73
2023-04-09T20:27:52.825Z,19.70
2023-04-09T20:30:19.315Z,19.69
2023-04-09T20:32:45.737Z,19.69
2023-04-09T20:35:13.590Z,19.68
2023-04-09T20:37:40.076Z,19.68
2023-04-09T20:40:06.864Z,19.67
2023-04-09T20:42:33.268Z,19.67
2023-04-09T20:45:01.805Z,19.65
2023-04-09T20:47:28.490Z,19.63
2023-04-09T20:49:59.557Z,19.64
2023-04-09T20:52:28.475Z,19.65
2023-04-09T20:54:55.447Z,19.64
2023-04-09T21:11:20.570Z,19.78
2023-04-09T21:13:54.608Z,19.83
2023-04-09T21:16:21.727Z,19.84
2023-04-09T21:18:48.869Z,19.86
2023-04-09T21:21:15.543Z,19.86
2023-04-09T21:23:41.963Z,19.83
2023-04-09T21:26:09.028Z,19.82
2023-04-09T21:28:35.466Z,19.79
2023-04-09T21:31:01.893Z,19.76
2023-04-09T21:33:29.977Z,19.73
2023-04-09T21:35:57.144Z,19.71
2023-04-09T21:38:23.538Z,19.69
2023-04-09T21:40:49.969Z,19.67
2023-04-09T21:43:16.617Z,19.65
2023-04-09T21:45:43.069Z,19.64
2023-04-09T21:48:09.470Z,19.63
2023-04-09T21:50:36.037Z,19.62
2023-04-09T21:53:03.268Z,19.59
2023-04-09T21:55:29.807Z,19.59
2023-04-09T21:57:56.292Z,19.58
2023-04-09T22:00:22.840Z,19.57
2023-04-09T22:02:49.212Z,19.59
2023-04-09T22:05:15.725Z,19.56
2023-04-09T22:07:42.544Z,19.54
2023-04-09T22:10:09.135Z,19.54
2023-04-09T22:12:37.315Z,19.53
2023-04-09T22:15:04.634Z,19.52
2023-04-09T22:17:31.336Z,19.52
2023-04-09T22:19:58.512Z,19.51
2023-04-09T22:22:24.883Z,19.51
2023-04-09T22:24:51.458Z,19.51
2023-04-09T22:27:17.791Z,19.47
2023-04-09T22:29:44.211Z,19.46
2023-04-09T22:32:10.614Z,19.46
2023-04-09T22:34:37.125Z,19.46
2023-04-09T22:37:03.525Z,19.44
2023-04-09T22:39:29.910Z,19.45
2023-04-09T22:41:56.347Z,19.42
2023-04-09T22:44:22.753Z,19.43
2023-04-09T22:46:49.245Z,19.40
2023-04-09T22:49:15.932Z,19.39
2023-04-09T22:51:42.707Z,19.39
2023-04-09T22:54:09.278Z,19.39
2023-04-09T22:56:36.711Z,19.39
2023-04-09T22:59:03.280Z,19.44
2023-04-09T23:01:29.675Z,19.44
2023-04-09T23:03:56.305Z,19.45
2023-04-09T23:06:24.404Z,19.45
2023-04-09T23:08:50.958Z,19.46
2023-04-09T23:11:17.359Z,19.46
2023-04-09T23:13:43.785Z,19.44
2023-04-09T23:16:10.530Z,19.44
2023-04-09T23:18:37.414Z,19.42
2023-04-09T23:21:05.434Z,19.44
2023-04-09T23:23:31.771Z,19.43
2023-04-09T23:25:58.147Z,19.42
2023-04-09T23:28:24.558Z,19.40
2023-04-09T23:30:51.146Z,19.40
2023-04-09T23:33:17.544Z,19.41
2023-04-09T23:35:43.895Z,19.40
2023-04-09T23:38:10.351Z,19.40
2023-04-09T23:40:36.678Z,19.38
2023-04-09T23:43:03.092Z,19.39
2023-04-09T23:45:29.562Z,19.38
2023-04-09T23:47:56.540Z,19.37
2023-04-09T23:50:23.201Z,19.36
2023-04-09T23:52:49.932Z,19.35
2023-04-09T23:55:16.396Z,19.34
2023-04-09T23:57:43.513Z,19.35
